sensor_id;sensor_type;location;lat;lon;timestamp;pressure;altitude;pressure_sealevel;temperature;humidity
16094;BME280;8151;47.824;12.092;2022-08-19T00:01:57;95772.38;;;22.32;69.77
16094;BME280;8151;47.824;12.092;2022-08-19T00:04:29;95768.84;;;22.31;69.90
16094;BME280;8151;47.824;12.092;2022-08-19T00:06:58;95776.72;;;22.38;69.57
16094;BME280;8151;47.824;12.092;2022-08-19T00:09:27;95788.13;;;22.45;69.32
16094;BME280;8151;47.824;12.092;2022-08-19T00:11:58;95791.31;;;22.42;69.30
16094;BME280;8151;47.824;12.092;2022-08-19T00:14:28;95796.66;;;22.37;69.39
16094;BME280;8151;47.824;12.092;2022-08-19T00:16:59;95794.50;;;22.39;69.33
16094;BME280;8151;47.824;12.092;2022-08-19T00:19:30;95788.31;;;22.38;69.36
16094;BME280;8151;47.824;12.092;2022-08-19T00:21:59;95783.72;;;22.34;69.59
16094;BME280;8151;47.824;12.092;2022-08-19T00:24:28;95775.38;;;22.35;69.49
16094;BME280;8151;47.824;12.092;2022-08-19T00:26:57;95779.69;;;22.36;69.39
16094;BME280;8151;47.824;12.092;2022-08-19T00:29:45;95767.56;;;22.39;69.36
16094;BME280;8151;47.824;12.092;2022-08-19T00:32:19;95762.16;;;22.39;69.21
16094;BME280;8151;47.824;12.092;2022-08-19T00:34:49;95751.91;;;22.36;69.42
16094;BME280;8151;47.824;12.092;2022-08-19T00:37:20;95745.44;;;22.37;69.32
16094;BME280;8151;47.824;12.092;2022-08-19T00:39:50;95749.16;;;22.31;69.51
16094;BME280;8151;47.824;12.092;2022-08-19T00:42:20;95729.97;;;22.22;69.65
16094;BME280;8151;47.824;12.092;2022-08-19T00:44:50;95730.72;;;22.17;69.55
16094;BME280;8151;47.824;12.092;2022-08-19T00:47:19;95734.59;;;21.99;69.89
16094;BME280;8151;47.824;12.092;2022-08-19T00:49:53;95739.13;;;21.94;70.00
16094;BME280;8151;47.824;12.092;2022-08-19T00:52:25;95751.31;;;22.01;69.77
16094;BME280;8151;47.824;12.092;2022-08-19T00:54:56;95746.53;;;22.09;69.65
16094;BME280;8151;47.824;12.092;2022-08-19T00:57:29;95744.19;;;22.17;69.27
16094;BME280;8151;47.824;12.092;2022-08-19T00:59:59;95740.53;;;22.29;68.98
16094;BME280;8151;47.824;12.092;2022-08-19T01:02:31;95744.88;;;22.35;68.64
16094;BME280;8151;47.824;12.092;2022-08-19T01:05:05;95738.75;;;22.39;68.60
16094;BME280;8151;47.824;12.092;2022-08-19T01:07:35;95743.81;;;22.36;68.70
16094;BME280;8151;47.824;12.092;2022-08-19T01:10:09;95768.81;;;22.26;68.92
16094;BME280;8151;47.824;12.092;2022-08-19T01:12:38;95774.91;;;22.16;69.21
16094;BME280;8151;47.824;12.092;2022-08-19T01:15:10;95770.53;;;22.10;69.45
16094;BME280;8151;47.824;12.092;2022-08-19T01:17:41;95778.41;;;22.17;69.32
16094;BME280;8151;47.824;12.092;2022-08-19T01:20:14;95794.00;;;22.15;69.36
16094;BME280;8151;47.824;12.092;2022-08-19T01:22:46;95795.38;;;22.17;69.33
16094;BME280;8151;47.824;12.092;2022-08-19T01:25:18;95784.81;;;22.11;69.55
16094;BME280;8151;47.824;12.092;2022-08-19T01:27:51;95787.13;;;21.97;69.88
16094;BME280;8151;47.824;12.092;2022-08-19T01:30:24;95778.66;;;21.88;70.13
16094;BME280;8151;47.824;12.092;2022-08-19T01:32:54;95775.66;;;21.85;70.28
16094;BME280;8151;47.824;12.092;2022-08-19T01:35:24;95764.25;;;21.72;70.36
16094;BME280;8151;47.824;12.092;2022-08-19T01:37:57;95781.91;;;21.63;70.31
16094;BME280;8151;47.824;12.092;2022-08-19T01:40:29;95798.25;;;21.56;70.18
16094;BME280;8151;47.824;12.092;2022-08-19T01:42:59;95806.59;;;21.55;70.05
16094;BME280;8151;47.824;12.092;2022-08-19T01:45:29;95801.69;;;21.52;70.00
16094;BME280;8151;47.824;12.092;2022-08-19T01:47:59;95801.69;;;21.52;69.90
16094;BME280;8151;47.824;12.092;2022-08-19T01:50:29;95806.78;;;21.48;69.70
16094;BME280;8151;47.824;12.092;2022-08-19T01:52:59;95807.53;;;21.43;69.87
16094;BME280;8151;47.824;12.092;2022-08-19T01:55:35;95804.25;;;21.41;69.86
16094;BME280;8151;47.824;12.092;2022-08-19T01:58:10;95815.59;;;21.43;69.57
16094;BME280;8151;47.824;12.092;2022-08-19T02:00:41;95814.13;;;21.36;69.77
16094;BME280;8151;47.824;12.092;2022-08-19T02:03:09;95811.38;;;21.31;69.70
16094;BME280;8151;47.824;12.092;2022-08-19T02:05:39;95813.75;;;21.27;69.62
16094;BME280;8151;47.824;12.092;2022-08-19T02:08:10;95804.25;;;21.19;69.55
16094;BME280;8151;47.824;12.092;2022-08-19T02:10:41;95788.59;;;21.16;69.56
16094;BME280;8151;47.824;12.092;2022-08-19T02:13:10;95789.66;;;21.15;69.49
16094;BME280;8151;47.824;12.092;2022-08-19T02:15:41;95790.22;;;21.17;69.24
16094;BME280;8151;47.824;12.092;2022-08-19T02:18:09;95795.03;;;21.15;69.34
16094;BME280;8151;47.824;12.092;2022-08-19T02:20:40;95796.91;;;21.15;69.10
16094;BME280;8151;47.824;12.092;2022-08-19T02:23:11;95785.34;;;21.14;69.07
16094;BME280;8151;47.824;12.092;2022-08-19T02:25:45;95782.72;;;21.19;68.97
16094;BME280;8151;47.824;12.092;2022-08-19T02:28:15;95780.63;;;21.27;68.70
16094;BME280;8151;47.824;12.092;2022-08-19T02:30:47;95770.47;;;21.29;68.42
16094;BME280;8151;47.824;12.092;2022-08-19T02:33:16;95774.56;;;21.36;68.23
16094;BME280;8151;47.824;12.092;2022-08-19T02:35:45;95783.16;;;21.33;68.20
16094;BME280;8151;47.824;12.092;2022-08-19T02:38:16;95780.63;;;21.27;68.48
16094;BME280;8151;47.824;12.092;2022-08-19T02:40:55;95785.97;;;21.21;68.62
16094;BME280;8151;47.824;12.092;2022-08-19T02:43:26;95782.72;;;21.19;68.69
16094;BME280;8151;47.824;12.092;2022-08-19T02:45:58;95785.66;;;21.18;68.63
16094;BME280;8151;47.824;12.092;2022-08-19T02:48:27;95781.59;;;21.15;68.68
16094;BME280;8151;47.824;12.092;2022-08-19T02:50:55;95786.09;;;21.10;68.85
16094;BME280;8151;47.824;12.092;2022-08-19T02:53:27;95773.38;;;21.05;68.79
16094;BME280;8151;47.824;12.092;2022-08-19T02:55:56;95776.56;;;21.02;68.89
16094;BME280;8151;47.824;12.092;2022-08-19T02:58:24;95778.38;;;20.96;69.02
16094;BME280;8151;47.824;12.092;2022-08-19T03:00:55;95778.88;;;20.93;68.91
16094;BME280;8151;47.824;12.092;2022-08-19T03:03:24;95777.50;;;20.91;69.05
16094;BME280;8151;47.824;12.092;2022-08-19T03:06:03;95775.63;;;20.91;68.98
16094;BME280;8151;47.824;12.092;2022-08-19T03:08:33;95770.00;;;20.93;68.84
16094;BME280;8151;47.824;12.092;2022-08-19T03:11:02;95764.84;;;20.91;68.82
16094;BME280;8151;47.824;12.092;2022-08-19T03:13:31;95769.19;;;20.92;68.79
16094;BME280;8151;47.824;12.092;2022-08-19T03:16:04;95775.84;;;20.90;68.87
16094;BME280;8151;47.824;12.092;2022-08-19T03:18:33;95783.13;;;20.89;68.73
16094;BME280;8151;47.824;12.092;2022-08-19T03:21:01;95790.13;;;20.90;68.91
16094;BME280;8151;47.824;12.092;2022-08-19T03:23:30;95796.06;;;20.92;68.90
16094;BME280;8151;47.824;12.092;2022-08-19T03:26:03;95794.19;;;20.93;68.86
16094;BME280;8151;47.824;12.092;2022-08-19T03:28:43;95793.94;;;20.94;68.89
16094;BME280;8151;47.824;12.092;2022-08-19T03:31:25;95796.13;;;20.97;68.70
16094;BME280;8151;47.824;12.092;2022-08-19T03:34:11;95799.38;;;20.99;68.63
16094;BME280;8151;47.824;12.092;2022-08-19T03:36:40;95805.91;;;21.03;68.54
16094;BME280;8151;47.824;12.092;2022-08-19T03:39:10;95812.59;;;21.01;68.61
16094;BME280;8151;47.824;12.092;2022-08-19T03:41:42;95811.31;;;21.03;68.61
16094;BME280;8151;47.824;12.092;2022-08-19T03:44:13;95804.34;;;21.08;68.41
16094;BME280;8151;47.824;12.092;2022-08-19T03:46:45;95805.72;;;21.10;68.46
16094;BME280;8151;47.824;12.092;2022-08-19T03:49:14;95808.50;;;21.15;68.29
16094;BME280;8151;47.824;12.092;2022-08-19T03:51:45;95805.38;;;21.23;68.20
16094;BME280;8151;47.824;12.092;2022-08-19T03:54:17;95789.03;;;21.30;68.09
16094;BME280;8151;47.824;12.092;2022-08-19T03:56:51;95787.72;;;21.33;67.88
16094;BME280;8151;47.824;12.092;2022-08-19T03:59:22;95790.09;;;21.29;67.97
16094;BME280;8151;47.824;12.092;2022-08-19T04:01:54;95785.78;;;21.28;68.23
16094;BME280;8151;47.824;12.092;2022-08-19T04:04:23;95793.28;;;21.26;68.22
16094;BME280;8151;47.824;12.092;2022-08-19T04:06:55;95799.75;;;21.25;68.28
16094;BME280;8151;47.824;12.092;2022-08-19T04:09:24;95795.25;;;21.31;68.36
16094;BME280;8151;47.824;12.092;2022-08-19T04:11:56;95792.84;;;21.34;68.28
16094;BME280;8151;47.824;12.092;2022-08-19T04:14:27;95787.47;;;21.34;68.15
16094;BME280;8151;47.824;12.092;2022-08-19T04:16:58;95788.78;;;21.32;68.13
16094;BME280;8151;47.824;12.092;2022-08-19T04:19:26;95788.28;;;21.35;68.19
16094;BME280;8151;47.824;12.092;2022-08-19T04:21:57;95794.88;;;21.44;68.18
16094;BME280;8151;47.824;12.092;2022-08-19T04:24:26;95801.13;;;21.50;68.07
16094;BME280;8151;47.824;12.092;2022-08-19T04:26:56;95800.41;;;21.54;67.95
16094;BME280;8151;47.824;12.092;2022-08-19T04:29:27;95812.03;;;21.60;67.96
16094;BME280;8151;47.824;12.092;2022-08-19T04:31:57;95821.22;;;21.64;68.14
16094;BME280;8151;47.824;12.092;2022-08-19T04:34:36;95819.09;;;21.66;68.60
16094;BME280;8151;47.824;12.092;2022-08-19T04:37:25;95820.72;;;21.67;69.04
16094;BME280;8151;47.824;12.092;2022-08-19T04:40:04;95814.28;;;21.68;69.01
16094;BME280;8151;47.824;12.092;2022-08-19T04:42:52;95823.84;;;21.59;69.15
16094;BME280;8151;47.824;12.092;2022-08-19T04:45:22;95825.91;;;21.52;69.16
16094;BME280;8151;47.824;12.092;2022-08-19T04:47:54;95834.44;;;21.43;69.22
16094;BME280;8151;47.824;12.092;2022-08-19T04:50:44;95840.44;;;21.51;69.37
16094;BME280;8151;47.824;12.092;2022-08-19T04:53:13;95835.94;;;21.56;69.49
16094;BME280;8151;47.824;12.092;2022-08-19T04:55:42;95832.75;;;21.59;69.81
16094;BME280;8151;47.824;12.092;2022-08-19T04:58:12;95833.06;;;21.63;69.81
16094;BME280;8151;47.824;12.092;2022-08-19T05:00:41;95842.47;;;21.60;70.39
16094;BME280;8151;47.824;12.092;2022-08-19T05:03:10;95848.66;;;21.61;70.50
16094;BME280;8151;47.824;12.092;2022-08-19T05:05:40;95845.91;;;21.56;70.84
16094;BME280;8151;47.824;12.092;2022-08-19T05:08:11;95837.25;;;21.54;71.32
16094;BME280;8151;47.824;12.092;2022-08-19T05:10:41;95836.75;;;21.57;71.52
16094;BME280;8151;47.824;12.092;2022-08-19T05:13:11;95841.66;;;21.60;71.60
16094;BME280;8151;47.824;12.092;2022-08-19T05:15:40;95832.50;;;21.61;71.83
16094;BME280;8151;47.824;12.092;2022-08-19T05:18:09;95829.50;;;21.57;72.11
16094;BME280;8151;47.824;12.092;2022-08-19T05:20:55;95832.50;;;21.61;72.03
16094;BME280;8151;47.824;12.092;2022-08-19T05:23:41;95829.75;;;21.56;72.27
16094;BME280;8151;47.824;12.092;2022-08-19T05:26:11;95831.25;;;21.47;72.84
16094;BME280;8151;47.824;12.092;2022-08-19T05:28:41;95828.00;;;21.45;73.11
16094;BME280;8151;47.824;12.092;2022-08-19T05:31:09;95823.06;;;21.41;73.37
16094;BME280;8151;47.824;12.092;2022-08-19T05:33:39;95821.72;;;21.39;73.45
16094;BME280;8151;47.824;12.092;2022-08-19T05:36:07;95821.16;;;21.37;73.69
16094;BME280;8151;47.824;12.092;2022-08-19T05:38:36;95813.31;;;21.35;73.93
16094;BME280;8151;47.824;12.092;2022-08-19T05:41:07;95815.88;;;21.25;74.40
16094;BME280;8151;47.824;12.092;2022-08-19T05:43:36;95821.06;;;21.32;74.68
16094;BME280;8151;47.824;12.092;2022-08-19T05:46:07;95826.38;;;21.43;74.45
16094;BME280;8151;47.824;12.092;2022-08-19T05:48:36;95832.38;;;21.51;74.41
16094;BME280;8151;47.824;12.092;2022-08-19T05:51:05;95841.25;;;21.51;74.33
16094;BME280;8151;47.824;12.092;2022-08-19T05:53:35;95841.66;;;21.43;74.47
16094;BME280;8151;47.824;12.092;2022-08-19T05:56:04;95843.47;;;21.37;75.32
16094;BME280;8151;47.824;12.092;2022-08-19T05:58:34;95850.50;;;21.38;75.27
16094;BME280;8151;47.824;12.092;2022-08-19T06:01:08;95851.47;;;21.32;75.70
16094;BME280;8151;47.824;12.092;2022-08-19T06:03:37;95845.53;;;21.30;75.94
16094;BME280;8151;47.824;12.092;2022-08-19T06:06:07;95843.16;;;21.34;75.97
16094;BME280;8151;47.824;12.092;2022-08-19T06:08:36;95847.41;;;21.30;76.21
16094;BME280;8151;47.824;12.092;2022-08-19T06:11:17;95844.16;;;21.28;76.47
16094;BME280;8151;47.824;12.092;2022-08-19T06:13:47;95838.78;;;21.28;76.73
16094;BME280;8151;47.824;12.092;2022-08-19T06:16:28;95836.91;;;21.28;76.76
16094;BME280;8151;47.824;12.092;2022-08-19T06:19:00;95826.44;;;21.32;76.76
16094;BME280;8151;47.824;12.092;2022-08-19T06:21:30;95828.47;;;21.41;76.52
16094;BME280;8151;47.824;12.092;2022-08-19T06:24:00;95844.28;;;21.38;76.63
16094;BME280;8151;47.824;12.092;2022-08-19T06:26:29;95838.28;;;21.31;76.96
16094;BME280;8151;47.824;12.092;2022-08-19T06:28:58;95837.63;;;21.40;76.71
16094;BME280;8151;47.824;12.092;2022-08-19T06:31:28;95820.81;;;21.50;76.58
16094;BME280;8151;47.824;12.092;2022-08-19T06:33:58;95820.13;;;21.60;76.02
16094;BME280;8151;47.824;12.092;2022-08-19T06:36:32;95816.41;;;21.66;75.67
16094;BME280;8151;47.824;12.092;2022-08-19T06:39:02;95814.84;;;21.70;75.57
16094;BME280;8151;47.824;12.092;2022-08-19T06:41:34;95819.16;;;21.71;75.53
16094;BME280;8151;47.824;12.092;2022-08-19T06:44:07;95818.09;;;21.72;75.87
16094;BME280;8151;47.824;12.092;2022-08-19T06:46:41;95816.53;;;21.76;75.91
16094;BME280;8151;47.824;12.092;2022-08-19T06:49:19;95817.69;;;21.86;75.57
16094;BME280;8151;47.824;12.092;2022-08-19T06:51:48;95808.03;;;21.90;75.38
16094;BME280;8151;47.824;12.092;2022-08-19T06:54:18;95791.31;;;21.88;75.60
16094;BME280;8151;47.824;12.092;2022-08-19T06:56:47;95789.13;;;21.85;75.76
16094;BME280;8151;47.824;12.092;2022-08-19T06:59:19;95794.03;;;21.88;75.64
16094;BME280;8151;47.824;12.092;2022-08-19T07:01:50;95797.78;;;21.87;75.59
16094;BME280;8151;47.824;12.092;2022-08-19T07:04:21;95812.41;;;21.96;75.23
16094;BME280;8151;47.824;12.092;2022-08-19T07:06:55;95822.06;;;21.92;75.38
16094;BME280;8151;47.824;12.092;2022-08-19T07:09:24;95817.78;;;21.69;75.77
16094;BME280;8151;47.824;12.092;2022-08-19T07:11:54;95819.97;;;21.50;76.38
16094;BME280;8151;47.824;12.092;2022-08-19T07:14:25;95828.69;;;21.57;76.62
16094;BME280;8151;47.824;12.092;2022-08-19T07:16:56;95827.75;;;21.68;76.13
16094;BME280;8151;47.824;12.092;2022-08-19T07:19:26;95829.97;;;21.76;76.03
16094;BME280;8151;47.824;12.092;2022-08-19T07:21:55;95842.28;;;21.94;75.41
16094;BME280;8151;47.824;12.092;2022-08-19T07:24:25;95849.66;;;22.04;74.79
16094;BME280;8151;47.824;12.092;2022-08-19T07:27:01;95838.94;;;22.09;74.67
16094;BME280;8151;47.824;12.092;2022-08-19T07:29:36;95841.69;;;22.14;74.54
16094;BME280;8151;47.824;12.092;2022-08-19T07:32:06;95839.34;;;22.23;74.13
16094;BME280;8151;47.824;12.092;2022-08-19T07:34:39;95847.28;;;22.30;74.00
16094;BME280;8151;47.824;12.092;2022-08-19T07:37:09;95848.56;;;22.27;74.15
16094;BME280;8151;47.824;12.092;2022-08-19T07:39:38;95853.59;;;22.18;74.76
16094;BME280;8151;47.824;12.092;2022-08-19T07:42:09;95844.97;;;22.16;74.89
16094;BME280;8151;47.824;12.092;2022-08-19T07:44:40;95846.56;;;22.17;75.17
16094;BME280;8151;47.824;12.092;2022-08-19T07:47:18;95829.59;;;22.17;75.41
16094;BME280;8151;47.824;12.092;2022-08-19T07:50:09;95826.91;;;22.17;75.57
16094;BME280;8151;47.824;12.092;2022-08-19T07:52:39;95820.56;;;22.28;75.53
16094;BME280;8151;47.824;12.092;2022-08-19T07:55:09;95832.69;;;22.26;75.34
16094;BME280;8151;47.824;12.092;2022-08-19T07:57:58;95840.59;;;22.10;75.63
16094;BME280;8151;47.824;12.092;2022-08-19T08:00:29;95846.25;;;22.14;75.63
16094;BME280;8151;47.824;12.092;2022-08-19T08:02:59;95835.53;;;22.19;75.35
16094;BME280;8151;47.824;12.092;2022-08-19T08:05:28;95833.41;;;22.21;75.43
16094;BME280;8151;47.824;12.092;2022-08-19T08:08:14;95833.25;;;22.28;75.13
16094;BME280;8151;47.824;12.092;2022-08-19T08:11:15;95829.03;;;22.42;74.54
16094;BME280;8151;47.824;12.092;2022-08-19T08:13:46;95834.78;;;22.51;74.39
16094;BME280;8151;47.824;12.092;2022-08-19T08:16:33;95829.09;;;22.47;74.59
16094;BME280;8151;47.824;12.092;2022-08-19T08:19:14;95832.25;;;22.39;74.89
16094;BME280;8151;47.824;12.092;2022-08-19T08:21:54;95851.78;;;22.24;75.40
16094;BME280;8151;47.824;12.092;2022-08-19T08:24:24;95851.59;;;22.31;75.17
16094;BME280;8151;47.824;12.092;2022-08-19T08:26:55;95848.97;;;22.41;74.83
16094;BME280;8151;47.824;12.092;2022-08-19T08:29:26;95840.47;;;22.54;74.25
16094;BME280;8151;47.824;12.092;2022-08-19T08:32:01;95838.41;;;22.67;73.85
16094;BME280;8151;47.824;12.092;2022-08-19T08:34:42;95830.16;;;22.78;73.57
16094;BME280;8151;47.824;12.092;2022-08-19T08:37:13;95833.16;;;22.87;73.32
16094;BME280;8151;47.824;12.092;2022-08-19T08:39:42;95832.13;;;22.93;73.12
16094;BME280;8151;47.824;12.092;2022-08-19T08:42:17;95829.16;;;22.95;73.05
16094;BME280;8151;47.824;12.092;2022-08-19T08:44:51;95827.31;;;23.00;73.07
16094;BME280;8151;47.824;12.092;2022-08-19T08:47:23;95838.47;;;23.09;72.95
16094;BME280;8151;47.824;12.092;2022-08-19T08:49:58;95833.09;;;23.09;72.72
16094;BME280;8151;47.824;12.092;2022-08-19T08:52:29;95833.84;;;23.05;72.99
16094;BME280;8151;47.824;12.092;2022-08-19T08:55:07;95848.97;;;23.06;73.04
16094;BME280;8151;47.824;12.092;2022-08-19T08:57:39;95854.94;;;23.08;73.13
16094;BME280;8151;47.824;12.092;2022-08-19T09:00:17;95850.34;;;23.08;73.02
16094;BME280;8151;47.824;12.092;2022-08-19T09:02:48;95854.03;;;23.02;72.79
16094;BME280;8151;47.824;12.092;2022-08-19T09:05:19;95860.50;;;23.01;72.68
16094;BME280;8151;47.824;12.092;2022-08-19T09:07:57;95868.38;;;23.03;72.64
16094;BME280;8151;47.824;12.092;2022-08-19T09:10:33;95862.94;;;22.97;72.89
16094;BME280;8151;47.824;12.092;2022-08-19T09:13:17;95868.53;;;22.91;72.96
16094;BME280;8151;47.824;12.092;2022-08-19T09:15:53;95866.06;;;22.84;73.10
16094;BME280;8151;47.824;12.092;2022-08-19T09:18:23;95860.19;;;22.92;73.02
16094;BME280;8151;47.824;12.092;2022-08-19T09:20:57;95845.06;;;22.91;73.04
16094;BME280;8151;47.824;12.092;2022-08-19T09:23:26;95850.19;;;22.93;73.01
16094;BME280;8151;47.824;12.092;2022-08-19T09:25:55;95853.84;;;23.09;72.74
16094;BME280;8151;47.824;12.092;2022-08-19T09:28:24;95851.53;;;23.28;72.29
16094;BME280;8151;47.824;12.092;2022-08-19T09:30:53;95850.81;;;23.43;72.01
16094;BME280;8151;47.824;12.092;2022-08-19T09:33:22;95849.25;;;23.57;71.86
16094;BME280;8151;47.824;12.092;2022-08-19T09:35:50;95851.47;;;23.70;71.31
16094;BME280;8151;47.824;12.092;2022-08-19T09:38:36;95842.34;;;23.82;71.31
16094;BME280;8151;47.824;12.092;2022-08-19T09:41:11;95846.72;;;23.98;71.49
16094;BME280;8151;47.824;12.092;2022-08-19T09:43:43;95843.78;;;24.10;71.08
16094;BME280;8151;47.824;12.092;2022-08-19T09:46:14;95853.00;;;24.14;71.35
16094;BME280;8151;47.824;12.092;2022-08-19T09:48:45;95850.56;;;24.17;70.62
16094;BME280;8151;47.824;12.092;2022-08-19T09:51:18;95856.47;;;24.09;70.55
16094;BME280;8151;47.824;12.092;2022-08-19T09:53:49;95856.19;;;24.01;70.71
16094;BME280;8151;47.824;12.092;2022-08-19T09:56:21;95852.16;;;24.08;70.36
16094;BME280;8151;47.824;12.092;2022-08-19T09:58:50;95845.97;;;24.18;69.96
16094;BME280;8151;47.824;12.092;2022-08-19T10:01:21;95842.19;;;24.34;69.51
16094;BME280;8151;47.824;12.092;2022-08-19T10:03:52;95839.22;;;24.31;69.55
16094;BME280;8151;47.824;12.092;2022-08-19T10:06:23;95825.44;;;24.32;69.49
16094;BME280;8151;47.824;12.092;2022-08-19T10:09:15;95818.69;;;24.35;69.31
16094;BME280;8151;47.824;12.092;2022-08-19T10:12:01;95824.69;;;24.52;69.45
16094;BME280;8151;47.824;12.092;2022-08-19T10:14:32;95814.41;;;24.54;68.84
16094;BME280;8151;47.824;12.092;2022-08-19T10:17:02;95821.16;;;24.57;68.90
16094;BME280;8151;47.824;12.092;2022-08-19T10:19:47;95822.78;;;24.68;69.00
16094;BME280;8151;47.824;12.092;2022-08-19T10:22:22;95826.81;;;24.81;68.61
16094;BME280;8151;47.824;12.092;2022-08-19T10:24:53;95831.16;;;24.87;68.71
16094;BME280;8151;47.824;12.092;2022-08-19T10:27:22;95841.97;;;24.87;68.41
16094;BME280;8151;47.824;12.092;2022-08-19T10:29:52;95834.63;;;24.93;68.13
16094;BME280;8151;47.824;12.092;2022-08-19T10:32:21;95834.34;;;25.10;67.11
16094;BME280;8151;47.824;12.092;2022-08-19T10:35:00;95835.41;;;25.19;66.40
16094;BME280;8151;47.824;12.092;2022-08-19T10:37:32;95836.50;;;25.18;66.36
16094;BME280;8151;47.824;12.092;2022-08-19T10:40:04;95825.16;;;25.26;66.49
16094;BME280;8151;47.824;12.092;2022-08-19T10:42:34;95828.34;;;25.44;66.27
16094;BME280;8151;47.824;12.092;2022-08-19T10:45:04;95815.81;;;25.63;65.48
16094;BME280;8151;47.824;12.092;2022-08-19T10:47:34;95804.72;;;25.60;65.52
16094;BME280;8151;47.824;12.092;2022-08-19T10:50:03;95797.41;;;25.60;65.38
16094;BME280;8151;47.824;12.092;2022-08-19T10:52:56;95785.16;;;25.73;65.53
16094;BME280;8151;47.824;12.092;2022-08-19T10:55:26;95777.22;;;25.82;65.22
16094;BME280;8151;47.824;12.092;2022-08-19T10:58:13;95798.38;;;25.85;64.83
16094;BME280;8151;47.824;12.092;2022-08-19T11:00:43;95790.84;;;25.71;65.05
16094;BME280;8151;47.824;12.092;2022-08-19T11:03:12;95793.28;;;25.73;65.11
16094;BME280;8151;47.824;12.092;2022-08-19T11:05:40;95786.41;;;25.86;64.70
16094;BME280;8151;47.824;12.092;2022-08-19T11:08:12;95781.78;;;25.97;63.97
16094;BME280;8151;47.824;12.092;2022-08-19T11:10:52;95791.84;;;25.86;64.02
16094;BME280;8151;47.824;12.092;2022-08-19T11:13:24;95782.72;;;25.66;64.39
16094;BME280;8151;47.824;12.092;2022-08-19T11:15:57;95784.97;;;25.59;64.58
16094;BME280;8151;47.824;12.092;2022-08-19T11:18:33;95782.78;;;25.61;64.62
16094;BME280;8151;47.824;12.092;2022-08-19T11:21:10;95771.91;;;25.66;64.12
16094;BME280;8151;47.824;12.092;2022-08-19T11:23:39;95773.00;;;25.60;63.99
16094;BME280;8151;47.824;12.092;2022-08-19T11:26:10;95766.03;;;25.49;63.31
16094;BME280;8151;47.824;12.092;2022-08-19T11:28:39;95762.28;;;25.40;62.94
16094;BME280;8151;47.824;12.092;2022-08-19T11:31:11;95748.97;;;25.43;63.41
16094;BME280;8151;47.824;12.092;2022-08-19T11:33:42;95752.75;;;25.47;63.12
16094;BME280;8151;47.824;12.092;2022-08-19T11:36:14;95754.63;;;25.52;62.71
16094;BME280;8151;47.824;12.092;2022-08-19T11:38:44;95752.09;;;25.71;62.66
16094;BME280;8151;47.824;12.092;2022-08-19T11:41:18;95762.84;;;25.91;62.49
16094;BME280;8151;47.824;12.092;2022-08-19T11:43:47;95761.91;;;26.11;61.61
16094;BME280;8151;47.824;12.092;2022-08-19T11:46:17;95765.44;;;26.12;61.30
16094;BME280;8151;47.824;12.092;2022-08-19T11:48:45;95769.56;;;25.99;61.00
16094;BME280;8151;47.824;12.092;2022-08-19T11:51:17;95753.06;;;25.90;60.86
16094;BME280;8151;47.824;12.092;2022-08-19T11:53:47;95759.63;;;25.84;60.94
16094;BME280;8151;47.824;12.092;2022-08-19T11:56:18;95758.25;;;25.92;60.78
16094;BME280;8151;47.824;12.092;2022-08-19T11:58:47;95755.75;;;25.96;60.21
16094;BME280;8151;47.824;12.092;2022-08-19T12:01:18;95761.25;;;25.80;60.53
16094;BME280;8151;47.824;12.092;2022-08-19T12:03:49;95757.81;;;25.64;60.39
16094;BME280;8151;47.824;12.092;2022-08-19T12:06:21;95751.63;;;25.59;60.64
16094;BME280;8151;47.824;12.092;2022-08-19T12:08:51;95761.63;;;25.63;60.67
16094;BME280;8151;47.824;12.092;2022-08-19T12:11:22;95760.25;;;25.66;60.62
16094;BME280;8151;47.824;12.092;2022-08-19T12:13:52;95754.59;;;25.62;60.30
16094;BME280;8151;47.824;12.092;2022-08-19T12:16:24;95760.59;;;25.54;60.81
16094;BME280;8151;47.824;12.092;2022-08-19T12:18:55;95766.28;;;25.47;60.74
16094;BME280;8151;47.824;12.092;2022-08-19T12:21:27;95773.41;;;25.38;60.69
16094;BME280;8151;47.824;12.092;2022-08-19T12:23:58;95770.97;;;25.31;60.85
16094;BME280;8151;47.824;12.092;2022-08-19T12:26:29;95770.69;;;25.28;61.21
16094;BME280;8151;47.824;12.092;2022-08-19T12:29:18;95782.38;;;25.23;61.23
16094;BME280;8151;47.824;12.092;2022-08-19T12:31:50;95772.63;;;25.12;61.31
16094;BME280;8151;47.824;12.092;2022-08-19T12:34:18;95774.03;;;24.99;61.15
16094;BME280;8151;47.824;12.092;2022-08-19T12:36:47;95787.28;;;24.95;61.18
16094;BME280;8151;47.824;12.092;2022-08-19T12:39:17;95783.22;;;24.98;60.95
16094;BME280;8151;47.824;12.092;2022-08-19T12:41:47;95778.63;;;25.04;61.07
16094;BME280;8151;47.824;12.092;2022-08-19T12:44:22;95784.28;;;25.07;61.13
16094;BME280;8151;47.824;12.092;2022-08-19T12:46:58;95785.38;;;25.06;61.21
16094;BME280;8151;47.824;12.092;2022-08-19T12:49:27;95789.97;;;25.11;61.09
16094;BME280;8151;47.824;12.092;2022-08-19T12:52:16;95783.47;;;25.12;61.34
16094;BME280;8151;47.824;12.092;2022-08-19T12:54:49;95785.09;;;25.23;61.42
16094;BME280;8151;47.824;12.092;2022-08-19T12:57:23;95793.19;;;25.28;61.14
16094;BME280;8151;47.824;12.092;2022-08-19T13:00:00;95787.22;;;25.21;60.81
16094;BME280;8151;47.824;12.092;2022-08-19T13:02:32;95789.13;;;25.15;61.01
16094;BME280;8151;47.824;12.092;2022-08-19T13:05:07;95784.78;;;25.20;60.82
16094;BME280;8151;47.824;12.092;2022-08-19T13:07:37;95785.09;;;25.13;60.70
16094;BME280;8151;47.824;12.092;2022-08-19T13:10:08;95792.69;;;25.11;60.96
16094;BME280;8151;47.824;12.092;2022-08-19T13:12:38;95790.50;;;25.08;61.04
16094;BME280;8151;47.824;12.092;2022-08-19T13:15:09;95792.97;;;24.99;60.80
16094;BME280;8151;47.824;12.092;2022-08-19T13:17:38;95795.94;;;24.92;60.86
16094;BME280;8151;47.824;12.092;2022-08-19T13:20:08;95787.84;;;24.92;60.81
16094;BME280;8151;47.824;12.092;2022-08-19T13:22:38;95791.34;;;24.93;60.67
16094;BME280;8151;47.824;12.092;2022-08-19T13:25:08;95792.72;;;24.95;60.09
16094;BME280;8151;47.824;12.092;2022-08-19T13:27:39;95791.88;;;24.95;60.43